createdAt,value
2017-04-24T00:01:05.561Z,26.47
2017-04-24T00:02:15.802Z,26.28
2017-04-24T00:03:25.731Z,26.37
2017-04-24T00:04:36.005Z,26.28
2017-04-24T00:05:45.934Z,26.18
2017-04-24T00:06:55.865Z,26.18
2017-04-24T00:08:05.797Z,26.37
2017-04-24T00:09:15.727Z,26.28
2017-04-24T00:10:25.651Z,26.37
2017-04-24T00:11:35.579Z,26.18
2017-04-24T00:12:45.502Z,26.57
2017-04-24T00:13:55.433Z,26.18
2017-04-24T00:15:05.045Z,26.37
2017-04-24T00:16:15.293Z,26.18
2017-04-24T00:17:25.530Z,26.18
2017-04-24T00:18:35.777Z,26.57
2017-04-24T00:19:45.706Z,25.9
2017-04-24T00:20:55.949Z,26.28
2017-04-24T00:22:06.181Z,26.37
2017-04-24T00:23:16.116Z,26.47
2017-04-24T00:24:26.048Z,26.57
2017-04-24T00:25:35.976Z,26.09
2017-04-24T00:26:46.222Z,26.28
2017-04-24T00:27:56.455Z,26.37
2017-04-24T00:29:06.393Z,25.9
2017-04-24T00:30:16.326Z,26.47
2017-04-24T00:31:26.252Z,26.47
2017-04-24T00:32:36.176Z,26.37
2017-04-24T00:33:46.419Z,26.37
2017-04-24T00:34:56.663Z,26.47
2017-04-24T00:36:06.592Z,26.47
2017-04-24T00:37:16.513Z,26.28
2017-04-24T00:38:26.751Z,26.47
2017-04-24T00:39:36.368Z,26.18
2017-04-24T00:40:46.605Z,26.47
2017-04-24T00:41:56.216Z,26.57
2017-04-24T00:43:05.517Z,26.28
2017-04-24T00:44:15.442Z,26.28
2017-04-24T00:45:25.062Z,26.28
2017-04-24T00:46:34.992Z,25.99
2017-04-24T00:47:44.293Z,26.57
2017-04-24T00:48:54.445Z,25.99
2017-04-24T00:50:04.372Z,26.09
2017-04-24T00:51:14.307Z,26.37
2017-04-24T00:52:24.236Z,26.28
2017-04-24T00:53:34.473Z,26.37
2017-04-24T00:54:44.712Z,25.9
2017-04-24T00:55:54.640Z,26.18
2017-04-24T00:57:04.875Z,26.09
2017-04-24T00:58:14.799Z,26.47
2017-04-24T00:59:24.107Z,26.18
2017-04-24T01:00:34.346Z,26.37
2017-04-24T01:01:44.325Z,26.09
2017-04-24T01:02:54.566Z,26.09
2017-04-24T01:04:04.799Z,26.18
2017-04-24T01:05:14.740Z,26.18
2017-04-24T01:06:24.978Z,25.99
2017-04-24T01:07:35.223Z,26.09
2017-04-24T01:08:45.472Z,26.09
2017-04-24T01:09:55.720Z,26.09
2017-04-24T01:11:05.958Z,26.18
2017-04-24T01:12:15.886Z,26.09
2017-04-24T01:13:26.130Z,26.18
2017-04-24T01:14:36.374Z,26.18
2017-04-24T01:15:46.623Z,26.18
2017-04-24T01:16:56.865Z,25.99
2017-04-24T01:18:06.794Z,26.37
2017-04-24T01:19:17.039Z,26.37
2017-04-24T01:20:27.297Z,26.18
2017-04-24T01:21:36.910Z,26.28
2017-04-24T01:22:46.524Z,26.09
2017-04-24T01:23:56.768Z,26.47
2017-04-24T01:25:07.006Z,26.18
2017-04-24T01:26:17.255Z,26.09
2017-04-24T01:27:27.522Z,25.99
2017-04-24T01:28:37.455Z,26.09
2017-04-24T01:29:47.388Z,25.99
2017-04-24T01:30:57.330Z,26.28
2017-04-24T01:32:07.254Z,25.99
2017-04-24T01:33:17.185Z,26.37
2017-04-24T01:34:27.428Z,25.99
2017-04-24T01:35:37.661Z,26.28
2017-04-24T01:36:47.905Z,26.28
2017-04-24T01:37:58.156Z,26.18
2017-04-24T01:39:08.088Z,26.09
2017-04-24T01:40:18.018Z,25.8
2017-04-24T01:41:28.255Z,26.37
2017-04-24T01:42:38.492Z,26.18
2017-04-24T01:43:48.737Z,26.18
2017-04-24T01:44:58.983Z,26.18
2017-04-24T01:46:09.218Z,25.8
2017-04-24T01:47:18.835Z,26.18
2017-04-24T01:48:29.076Z,25.99
2017-04-24T01:49:39.312Z,25.9
2017-04-24T01:50:49.232Z,25.9
2017-04-24T01:51:59.155Z,26.18
2017-04-24T01:53:09.082Z,25.9
2017-04-24T01:54:19.327Z,26.09
2017-04-24T01:55:29.259Z,25.8
2017-04-24T01:56:39.496Z,25.8
2017-04-24T01:57:49.418Z,25.9
2017-04-24T01:58:59.666Z,26.09
2017-04-24T02:00:09.595Z,26.07
2017-04-24T02:01:19.519Z,26.09
2017-04-24T02:02:29.765Z,25.99
2017-04-24T02:03:40.001Z,26.18
2017-04-24T02:04:49.936Z,26.18
2017-04-24T02:06:00.180Z,26.18
2017-04-24T02:07:10.109Z,25.99
2017-04-24T02:08:20.350Z,26.37
2017-04-24T02:09:30.603Z,26.18
2017-04-24T02:10:40.525Z,26.37
2017-04-24T02:11:50.775Z,26.09
2017-04-24T02:13:01.015Z,26.18
2017-04-24T02:14:11.250Z,26.18
2017-04-24T02:15:20.556Z,25.9
2017-04-24T02:16:30.792Z,25.98
2017-04-24T02:17:41.042Z,26.17
2017-04-24T02:18:50.979Z,25.8
2017-04-24T02:20:01.217Z,26.18
2017-04-24T02:21:10.823Z,25.8
2017-04-24T02:22:21.067Z,25.8
2017-04-24T02:23:31.311Z,26.07
2017-04-24T02:24:41.554Z,26.18
2017-04-24T02:25:51.489Z,26.09
2017-04-24T02:27:01.431Z,25.9
2017-04-24T02:28:11.357Z,25.99
2017-04-24T02:29:21.608Z,25.6
2017-04-24T02:30:31.842Z,25.79
2017-04-24T02:31:41.451Z,25.7
2017-04-24T02:32:51.065Z,26.09
2017-04-24T02:34:00.997Z,26.27
2017-04-24T02:35:11.233Z,25.99
2017-04-24T02:36:21.164Z,26.18
2017-04-24T02:37:31.095Z,26.37
2017-04-24T02:38:41.339Z,26.28
2017-04-24T02:39:51.586Z,26.18
2017-04-24T02:41:01.546Z,25.8
2017-04-24T02:42:11.471Z,25.6
2017-04-24T02:43:21.411Z,25.52
2017-04-24T02:44:31.667Z,25.6
2017-04-24T02:45:41.910Z,25.52
2017-04-24T02:46:52.144Z,25.62
2017-04-24T02:48:02.086Z,25.52
2017-04-24T02:49:11.701Z,23.5
2017-04-24T02:50:21.326Z,23.38
2017-04-24T02:51:31.258Z,24.32
2017-04-24T02:52:41.492Z,25.2
2017-04-24T02:53:51.423Z,25.58
2017-04-24T02:55:01.659Z,25.49
2017-04-24T02:56:11.899Z,25.21
2017-04-24T02:57:21.521Z,25.32
2017-04-24T02:58:31.767Z,25.22
2017-04-24T02:59:41.378Z,25.03
2017-04-24T03:00:51.307Z,24.84
2017-04-24T03:02:00.921Z,24.84
2017-04-24T03:03:10.536Z,24.93
2017-04-24T03:04:20.463Z,24.45
2017-04-24T03:05:30.393Z,24.55
2017-04-24T03:06:40.632Z,24.55
2017-04-24T03:07:50.563Z,24.65
2017-04-24T03:09:00.808Z,24.55
2017-04-24T03:10:11.047Z,24.84
2017-04-24T03:11:20.975Z,24.74
2017-04-24T03:12:31.212Z,24.84
2017-04-24T03:13:40.831Z,24.84
2017-04-24T03:14:50.130Z,24.55
2017-04-24T03:16:00.070Z,24.74
2017-04-24T03:17:10.310Z,24.93
2017-04-24T03:18:20.246Z,24.84
2017-04-24T03:19:30.490Z,24.35
2017-04-24T03:20:40.731Z,24.84
2017-04-24T03:21:50.976Z,24.84
2017-04-24T03:23:01.222Z,24.45
2017-04-24T03:24:11.467Z,24.65
2017-04-24T03:25:21.394Z,24.74
2017-04-24T03:26:31.657Z,24.93
2017-04-24T03:27:41.589Z,24.45
2017-04-24T03:28:51.522Z,24.84
2017-04-24T03:30:01.763Z,24.84
2017-04-24T03:31:11.996Z,24.74
2017-04-24T03:32:21.929Z,24.74
2017-04-24T03:33:32.166Z,24.74
2017-04-24T03:34:42.404Z,24.65
2017-04-24T03:35:52.069Z,24.55
2017-04-24T03:37:02.005Z,24.65
2017-04-24T03:38:11.623Z,24.84
2017-04-24T03:39:21.865Z,24.74
2017-04-24T03:40:32.103Z,24.93
2017-04-24T03:41:42.578Z,24.74
2017-04-24T03:42:52.504Z,24.74
2017-04-24T03:44:02.437Z,24.74
2017-04-24T03:45:12.367Z,24.55
2017-04-24T03:46:22.608Z,24.65
2017-04-24T03:47:32.854Z,24.65
2017-04-24T03:48:43.102Z,24.65
2017-04-24T03:49:53.038Z,24.93
2017-04-24T03:51:03.283Z,24.93
2017-04-24T03:52:13.516Z,24.93
2017-04-24T03:53:23.769Z,24.65
2017-04-24T03:54:33.703Z,24.65
2017-04-24T03:55:43.626Z,24.84
2017-04-24T03:56:53.865Z,24.84
2017-04-24T03:58:03.782Z,24.65
2017-04-24T03:59:13.710Z,24.26
2017-04-24T04:00:23.954Z,24.93
2017-04-24T04:01:34.190Z,24.84
2017-04-24T04:02:44.120Z,24.35
2017-04-24T04:03:54.362Z,24.84
2017-04-24T04:05:04.604Z,24.55
2017-04-24T04:06:14.840Z,24.35
2017-04-24T04:07:24.454Z,24.84
2017-04-24T04:08:34.700Z,24.74
2017-04-24T04:09:44.939Z,24.74
2017-04-24T04:10:55.185Z,24.74
2017-04-24T04:12:04.793Z,24.84
2017-04-24T04:13:14.100Z,24.74
2017-04-24T04:14:24.345Z,24.93
2017-04-24T04:15:34.611Z,24.74
2017-04-24T04:16:44.851Z,25.22
2017-04-24T04:17:54.463Z,25.12
2017-04-24T04:19:04.707Z,25.31
2017-04-24T04:20:14.690Z,25.4
2017-04-24T04:21:24.932Z,25.69
2017-04-24T04:22:35.176Z,25.88
2017-04-24T04:23:45.098Z,25.6
2017-04-24T04:24:55.341Z,25.59
2017-04-24T04:26:05.277Z,25.69
2017-04-24T04:27:15.196Z,25.59
2017-04-24T04:28:24.824Z,25.98
2017-04-24T04:29:35.064Z,26.27
2017-04-24T04:30:45.310Z,26.27
2017-04-24T04:31:54.925Z,26.07
2017-04-24T04:33:05.166Z,25.51
2017-04-24T04:34:14.795Z,25.88
2017-04-24T04:35:24.412Z,25.59
2017-04-24T04:36:34.332Z,25.6
2017-04-24T04:37:44.266Z,25.51
2017-04-24T04:38:54.512Z,25.6
2017-04-24T04:40:04.752Z,25.7
2017-04-24T04:41:14.685Z,25.6
2017-04-24T04:42:24.919Z,25.99
2017-04-24T04:43:34.850Z,26.28
2017-04-24T04:44:45.096Z,25.9
2017-04-24T04:45:55.336Z,26.18
2017-04-24T04:47:05.578Z,26.09
2017-04-24T04:48:15.187Z,26.28
2017-04-24T04:49:25.119Z,26.48
2017-04-24T04:50:35.356Z,26.37
2017-04-24T04:51:45.602Z,26.28
2017-04-24T04:52:55.544Z,26.57
2017-04-24T04:54:05.815Z,26.57
2017-04-24T04:55:16.062Z,26.48
2017-04-24T04:56:25.988Z,26.58
2017-04-24T04:57:35.919Z,26.68
2017-04-24T04:58:46.165Z,26.78
2017-04-24T04:59:56.093Z,26.86
2017-04-24T05:01:06.024Z,26.78
2017-04-24T05:02:15.633Z,27.06
2017-04-24T05:03:25.882Z,26.78
2017-04-24T05:04:36.128Z,27.26
2017-04-24T05:05:46.049Z,27.16
2017-04-24T05:06:55.671Z,27.35
2017-04-24T05:08:05.922Z,27.35
2017-04-24T05:09:16.170Z,27.44
2017-04-24T05:10:26.096Z,27.26
2017-04-24T05:11:36.028Z,27.45
2017-04-24T05:12:46.272Z,27.45
2017-04-24T05:13:56.204Z,27.55
2017-04-24T05:15:06.133Z,27.35
2017-04-24T05:16:16.380Z,27.26
2017-04-24T05:17:26.618Z,27.55
2017-04-24T05:18:36.863Z,27.16
2017-04-24T05:19:47.122Z,27.45
2017-04-24T05:20:57.049Z,27.35
2017-04-24T05:22:07.288Z,27.55
2017-04-24T05:23:17.530Z,27.55
2017-04-24T05:24:27.456Z,27.55
2017-04-24T05:25:37.711Z,27.55
2017-04-24T05:26:47.641Z,27.45
2017-04-24T05:27:57.879Z,27.45
2017-04-24T05:29:08.127Z,27.34
2017-04-24T05:30:18.365Z,27.55
2017-04-24T05:31:28.294Z,27.26
2017-04-24T05:32:37.909Z,26.97
2017-04-24T05:33:48.157Z,27.74
2017-04-24T05:34:58.078Z,27.74
2017-04-24T05:36:07.692Z,27.74
2017-04-24T05:37:17.955Z,27.74
2017-04-24T05:38:28.195Z,27.74
2017-04-24T05:39:37.821Z,27.74
2017-04-24T05:40:48.073Z,27.26
2017-04-24T05:41:58.315Z,27.55
2017-04-24T05:43:07.923Z,27.45
2017-04-24T05:44:17.857Z,27.74
2017-04-24T05:45:27.806Z,27.74
2017-04-24T05:46:38.043Z,27.55
2017-04-24T05:47:48.279Z,27.74
2017-04-24T05:48:58.213Z,27.64
2017-04-24T05:50:08.461Z,27.83
2017-04-24T05:51:18.381Z,27.83
2017-04-24T05:52:27.997Z,27.83
2017-04-24T05:53:37.607Z,27.35
2017-04-24T05:54:47.526Z,27.92
2017-04-24T05:55:57.465Z,27.55
2017-04-24T05:57:07.079Z,27.35
2017-04-24T05:58:17.033Z,27.64
2017-04-24T05:59:27.294Z,27.93
2017-04-24T06:00:37.215Z,27.93
2017-04-24T06:01:47.449Z,27.64
2017-04-24T06:02:57.074Z,28.03
2017-04-24T06:04:07.003Z,27.74
2017-04-24T06:05:17.257Z,27.93
2017-04-24T06:06:27.491Z,27.83
2017-04-24T06:07:37.420Z,27.64
2017-04-24T06:08:47.669Z,27.93
2017-04-24T06:09:57.282Z,27.93
2017-04-24T06:11:07.535Z,28.03
2017-04-24T06:12:17.462Z,27.64
2017-04-24T06:13:27.393Z,27.93
2017-04-24T06:14:37.321Z,27.83
2017-04-24T06:15:47.242Z,27.83
2017-04-24T06:16:57.199Z,27.93
2017-04-24T06:18:07.129Z,28.03
2017-04-24T06:19:17.063Z,27.83
2017-04-24T06:20:27.308Z,27.93
2017-04-24T06:21:37.554Z,28.03
2017-04-24T06:22:47.476Z,27.83
2017-04-24T06:23:57.402Z,27.74
2017-04-24T06:25:07.019Z,27.64
2017-04-24T06:26:16.966Z,28.03
2017-04-24T06:27:26.899Z,27.74
2017-04-24T06:28:37.135Z,28.13
2017-04-24T06:29:47.060Z,28.03
2017-04-24T06:30:56.986Z,27.64
2017-04-24T06:32:06.924Z,27.83
2017-04-24T06:33:17.166Z,28.03
2017-04-24T06:34:26.788Z,28.03
2017-04-24T06:35:36.708Z,28.13
2017-04-24T06:36:46.972Z,28.13
2017-04-24T06:37:57.221Z,28.03
2017-04-24T06:39:07.150Z,28.03
2017-04-24T06:40:17.080Z,28.13
2017-04-24T06:41:27.320Z,28.31
2017-04-24T06:42:37.562Z,28.41
2017-04-24T06:43:47.803Z,28.22
2017-04-24T06:44:57.733Z,28.22
2017-04-24T06:46:07.342Z,28.51
2017-04-24T06:47:17.265Z,28.41
2017-04-24T06:48:27.189Z,28.51
2017-04-24T06:49:37.434Z,28.51
2017-04-24T06:50:47.673Z,28.13
2017-04-24T06:51:57.601Z,28.22
2017-04-24T06:53:07.844Z,28.22
2017-04-24T06:54:18.085Z,28.22
2017-04-24T06:55:28.014Z,28.41
2017-04-24T06:56:37.943Z,28.31
2017-04-24T06:57:48.182Z,28.31
2017-04-24T06:58:58.427Z,28.22
2017-04-24T07:00:08.691Z,28.41
2017-04-24T07:01:18.926Z,28.13
2017-04-24T07:02:29.175Z,28.22
2017-04-24T07:03:39.426Z,28.22
2017-04-24T07:04:49.667Z,27.93
2017-04-24T07:05:59.915Z,28.22
2017-04-24T07:07:10.157Z,28.13
2017-04-24T07:08:20.404Z,28.22
2017-04-24T07:09:30.648Z,28.22
2017-04-24T07:10:40.912Z,28.51
2017-04-24T07:11:51.145Z,27.93
2017-04-24T07:13:01.384Z,28.22
2017-04-24T07:14:11.320Z,28.22
2017-04-24T07:15:21.245Z,28.31
2017-04-24T07:16:31.185Z,28.31
2017-04-24T07:17:41.419Z,28.22
2017-04-24T07:18:51.669Z,28.31
2017-04-24T07:20:01.602Z,28.41
2017-04-24T07:21:11.874Z,28.31
2017-04-24T07:22:22.117Z,28.31
2017-04-24T07:23:32.052Z,28.31
2017-04-24T07:24:42.287Z,28.22
2017-04-24T07:25:52.210Z,28.41
2017-04-24T07:27:01.823Z,28.31
2017-04-24T07:28:12.066Z,28.41
2017-04-24T07:29:22.302Z,28.31
2017-04-24T07:30:32.238Z,28.31
2017-04-24T07:31:42.165Z,27.83
2017-04-24T07:32:52.409Z,28.61
2017-04-24T07:34:02.647Z,28.72
2017-04-24T07:35:12.576Z,29.08
2017-04-24T07:36:22.502Z,29.18
2017-04-24T07:37:32.742Z,28.72
2017-04-24T07:38:42.983Z,28.8
2017-04-24T07:39:52.596Z,28.99
2017-04-24T07:41:02.836Z,29.38
2017-04-24T07:42:12.767Z,29.28
2017-04-24T07:43:22.693Z,29.18
2017-04-24T07:44:32.934Z,29.47
2017-04-24T07:45:43.173Z,29.38
2017-04-24T07:46:53.104Z,29.38
2017-04-24T07:48:03.039Z,28.7
2017-04-24T07:49:12.649Z,29.49
2017-04-24T07:50:22.891Z,29.18
2017-04-24T07:51:33.136Z,28.91
2017-04-24T07:52:43.056Z,28.7
2017-04-24T07:53:52.990Z,29.38
2017-04-24T07:55:02.921Z,29.38
2017-04-24T07:56:12.537Z,29.47
2017-04-24T07:57:22.483Z,29.66
2017-04-24T07:58:32.097Z,29.47
2017-04-24T07:59:42.342Z,29.57
2017-04-24T08:00:51.642Z,29.76
2017-04-24T08:02:01.891Z,29.38
2017-04-24T08:03:12.133Z,29.76
2017-04-24T08:04:22.058Z,29.57
2017-04-24T08:05:32.296Z,29.18
2017-04-24T08:06:42.539Z,29.66
2017-04-24T08:07:52.777Z,29.57
2017-04-24T08:09:03.019Z,29.18
2017-04-24T08:10:13.279Z,29.66
2017-04-24T08:11:22.892Z,29.47
2017-04-24T08:12:32.819Z,29.47
2017-04-24T08:13:43.064Z,29.28
2017-04-24T08:14:52.995Z,28.89
2017-04-24T08:16:02.954Z,29.38
2017-04-24T08:17:12.559Z,29.57
2017-04-24T08:18:22.482Z,29.76
2017-04-24T08:19:31.786Z,25.23
2017-04-24T08:20:42.032Z,23.58
2017-04-24T08:21:51.957Z,23.19
2017-04-24T08:23:01.882Z,23.36
2017-04-24T08:24:11.809Z,23.93
2017-04-24T08:25:22.059Z,24.51
2017-04-24T08:26:31.667Z,24.91
2017-04-24T08:27:41.944Z,25.11
2017-04-24T08:28:52.181Z,26.36
2017-04-24T08:30:02.422Z,27.62
2017-04-24T08:31:12.036Z,27.92
2017-04-24T08:32:21.995Z,27.72
2017-04-24T08:33:32.229Z,27.92
2017-04-24T08:34:41.844Z,28.03
2017-04-24T08:35:51.770Z,28.3
2017-04-24T08:37:01.389Z,27.93
2017-04-24T08:38:11.324Z,28.22
2017-04-24T08:39:21.265Z,28.7
2017-04-24T08:40:31.506Z,28.22
2017-04-24T08:41:41.748Z,27.35
2017-04-24T08:42:51.979Z,24.85
2017-04-24T08:44:01.918Z,23.47
2017-04-24T08:45:12.160Z,23.66
2017-04-24T08:46:21.774Z,24.5
2017-04-24T08:47:32.010Z,23.54
2017-04-24T08:48:41.945Z,24.11
2017-04-24T08:49:52.236Z,24.87
2017-04-24T08:51:02.484Z,24.6
2017-04-24T08:52:12.098Z,24.21
2017-04-24T08:53:22.336Z,24.21
2017-04-24T08:54:32.575Z,24.88
2017-04-24T08:55:42.810Z,24.79
2017-04-24T08:56:53.053Z,24.21
2017-04-24T08:58:03.291Z,23.83
2017-04-24T08:59:13.215Z,24.13
2017-04-24T09:00:23.151Z,23.65
2017-04-24T09:01:33.074Z,22.97
2017-04-24T09:02:43.320Z,23.15
2017-04-24T09:03:53.607Z,23.15
2017-04-24T09:05:03.847Z,23.25
2017-04-24T09:06:14.093Z,23.35
2017-04-24T09:07:24.341Z,23.26
2017-04-24T09:08:33.954Z,23.16
2017-04-24T09:09:43.884Z,22.69
2017-04-24T09:10:53.500Z,22.59
2017-04-24T09:12:03.736Z,22.3
2017-04-24T09:13:13.980Z,22.39
2017-04-24T09:14:23.598Z,22.96
2017-04-24T09:15:33.831Z,23.15
2017-04-24T09:16:43.441Z,22.58
2017-04-24T09:17:53.379Z,22.29
2017-04-24T09:19:03.619Z,22.19
2017-04-24T09:20:13.541Z,21.91
2017-04-24T09:21:23.151Z,21.81
2017-04-24T09:22:33.081Z,21.91
2017-04-24T09:23:43.002Z,21.81
2017-04-24T09:24:53.237Z,21.91
2017-04-24T09:26:02.855Z,22.09
2017-04-24T09:27:12.777Z,22
2017-04-24T09:28:22.703Z,22.67
2017-04-24T09:29:32.315Z,23.35
2017-04-24T09:30:42.242Z,23.46
2017-04-24T09:31:52.161Z,24.14
2017-04-24T09:33:02.398Z,24.05
2017-04-24T09:34:12.371Z,20.88
2017-04-24T09:35:22.309Z,20.97
2017-04-24T09:36:32.551Z,21.82
2017-04-24T09:37:42.483Z,22.09
2017-04-24T09:38:52.415Z,22.59
2017-04-24T09:40:02.037Z,22.59
2017-04-24T09:41:11.982Z,22.49
2017-04-24T09:42:21.902Z,22.69
2017-04-24T09:43:32.138Z,23.08
2017-04-24T09:44:42.075Z,22.99
2017-04-24T09:45:52.308Z,23.38
2017-04-24T09:47:02.552Z,23.86
2017-04-24T09:48:12.802Z,23.86
2017-04-24T09:49:22.725Z,24.82
2017-04-24T09:50:32.658Z,24.54
2017-04-24T09:51:42.581Z,24.24
2017-04-24T09:52:52.502Z,24.34
2017-04-24T09:54:02.752Z,25.21
2017-04-24T09:55:12.996Z,25.59
2017-04-24T09:56:23.230Z,24.63
2017-04-24T09:57:33.170Z,23.77
2017-04-24T09:58:43.413Z,23.67
2017-04-24T09:59:53.655Z,24.05
2017-04-24T10:01:03.588Z,25.69
2017-04-24T10:02:13.831Z,25.21
2017-04-24T10:03:23.757Z,25.11
2017-04-24T10:04:33.681Z,24.54
2017-04-24T10:05:43.294Z,24.73
2017-04-24T10:06:53.214Z,24.74
2017-04-24T10:08:03.139Z,24.74
2017-04-24T10:09:13.074Z,24.55
2017-04-24T10:10:23.307Z,24.63
2017-04-24T10:11:33.238Z,24.63
2017-04-24T10:12:43.475Z,23.96
2017-04-24T10:13:53.430Z,24.54
2017-04-24T10:15:03.671Z,24.73
2017-04-24T10:16:13.604Z,24.63
2017-04-24T10:17:23.535Z,24.07
2017-04-24T10:18:33.144Z,23.97
2017-04-24T10:19:43.385Z,24.35
2017-04-24T10:20:53.004Z,23.96
2017-04-24T10:22:02.924Z,24.05
2017-04-24T10:23:12.858Z,24.24
2017-04-24T10:24:22.799Z,24.05
2017-04-24T10:25:33.040Z,24.05
2017-04-24T10:26:42.964Z,24.05
2017-04-24T10:27:53.203Z,24.15
2017-04-24T10:29:03.132Z,24.05
2017-04-24T10:30:12.743Z,23.86
2017-04-24T10:31:22.981Z,24.45
2017-04-24T10:32:33.215Z,24.35
2017-04-24T10:33:43.457Z,23.68
2017-04-24T10:34:53.703Z,23.78
2017-04-24T10:36:03.942Z,24.16
2017-04-24T10:37:14.178Z,23.87
2017-04-24T10:38:23.483Z,23.68
2017-04-24T10:39:33.417Z,23.78
2017-04-24T10:40:43.662Z,23.87
2017-04-24T10:41:53.897Z,23.96
2017-04-24T10:43:03.506Z,23.39
2017-04-24T10:44:13.430Z,22.99
2017-04-24T10:45:23.666Z,23.47
2017-04-24T10:46:33.589Z,23.77
2017-04-24T10:47:43.524Z,23.57
2017-04-24T10:48:53.770Z,23.96
2017-04-24T10:50:04.008Z,23.57
2017-04-24T10:51:13.934Z,23.96
2017-04-24T10:52:24.176Z,23.97
2017-04-24T10:53:34.101Z,24.07
2017-04-24T10:54:43.709Z,24.55
2017-04-24T10:55:53.942Z,24.55
2017-04-24T10:57:04.174Z,25.03
2017-04-24T10:58:14.095Z,25.12
2017-04-24T10:59:24.335Z,25.22
2017-04-24T11:00:34.571Z,25.32
2017-04-24T11:01:44.503Z,25.51
2017-04-24T11:02:54.429Z,25.03
2017-04-24T11:04:04.358Z,25.03
2017-04-24T11:05:14.287Z,25.51
2017-04-24T11:06:24.208Z,24.93
2017-04-24T11:07:34.443Z,24.74
2017-04-24T11:08:44.369Z,24.35
2017-04-24T11:09:54.620Z,24.35
2017-04-24T11:11:04.236Z,23.78
2017-04-24T11:12:14.175Z,23.87
2017-04-24T11:13:24.433Z,24.26
2017-04-24T11:14:34.374Z,24.15
2017-04-24T11:15:44.305Z,24.54
2017-04-24T11:16:54.558Z,24.34
2017-04-24T11:18:04.799Z,24.93
2017-04-24T11:19:14.417Z,24.84
2017-04-24T11:20:24.350Z,24.55
2017-04-24T11:21:34.585Z,24.93
2017-04-24T11:22:44.828Z,25.22
2017-04-24T11:23:54.751Z,24.93
2017-04-24T11:25:05.004Z,24.65
2017-04-24T11:26:14.931Z,24.74
2017-04-24T11:27:24.860Z,24.55
2017-04-24T11:28:35.100Z,24.84
2017-04-24T11:29:45.041Z,24.45
2017-04-24T11:30:54.963Z,24.65
2017-04-24T11:32:04.889Z,24.35
2017-04-24T11:33:15.135Z,23.87
2017-04-24T11:34:25.062Z,23.97
2017-04-24T11:35:35.313Z,24.16
2017-04-24T11:36:45.560Z,23.97
2017-04-24T11:37:55.798Z,23.87
2017-04-24T11:39:06.040Z,23.87
2017-04-24T11:40:15.970Z,23.78
2017-04-24T11:41:26.209Z,23.68
2017-04-24T11:42:36.139Z,23.87
2017-04-24T11:43:46.386Z,23.97
2017-04-24T11:44:56.630Z,23.68
2017-04-24T11:46:06.277Z,23.87
2017-04-24T11:47:16.205Z,23.39
2017-04-24T11:48:26.137Z,23.87
2017-04-24T11:49:36.059Z,23.87
2017-04-24T11:50:45.997Z,23.87
2017-04-24T11:51:56.237Z,23.78
2017-04-24T11:53:05.849Z,23.87
2017-04-24T11:54:15.795Z,23.77
2017-04-24T11:55:26.035Z,23.49
2017-04-24T11:56:36.269Z,23.68
2017-04-24T11:57:46.510Z,23.77
2017-04-24T11:58:56.442Z,24.05
2017-04-24T12:00:06.688Z,23.77
2017-04-24T12:01:16.619Z,23.87
2017-04-24T12:02:26.853Z,23.87
2017-04-24T12:03:37.115Z,23.67
2017-04-24T12:04:47.359Z,23.78
2017-04-24T12:05:57.279Z,23.78
2017-04-24T12:07:07.522Z,23.97
2017-04-24T12:08:17.805Z,23.87
2017-04-24T12:09:27.735Z,23.49
2017-04-24T12:10:37.980Z,23.87
2017-04-24T12:11:48.214Z,23.87
2017-04-24T12:12:57.509Z,24.07
2017-04-24T12:14:07.758Z,23.87
2017-04-24T12:15:17.365Z,23.67
2017-04-24T12:16:27.284Z,23.97
2017-04-24T12:17:37.527Z,23.96
2017-04-24T12:18:47.778Z,23.96
2017-04-24T12:19:57.707Z,23.87
2017-04-24T12:21:07.634Z,23.68
2017-04-24T12:22:17.890Z,24.07
2017-04-24T12:23:28.135Z,23.87
2017-04-24T12:24:38.382Z,23.97
2017-04-24T12:25:48.309Z,24.07
2017-04-24T12:26:58.236Z,24.07
2017-04-24T12:28:08.166Z,24.16
2017-04-24T12:29:17.785Z,23.87
2017-04-24T12:30:27.742Z,24.16
2017-04-24T12:31:37.983Z,24.26
2017-04-24T12:32:47.916Z,24.65
2017-04-24T12:33:57.843Z,24.65
2017-04-24T12:35:08.080Z,24.65
2017-04-24T12:36:17.374Z,23.87
2017-04-24T12:37:27.617Z,24.07
2017-04-24T12:38:37.877Z,24.16
2017-04-24T12:39:47.804Z,24.07
2017-04-24T12:40:57.742Z,24.16
2017-04-24T12:42:08.202Z,24.26
2017-04-24T12:43:17.816Z,24.35
2017-04-24T12:44:28.055Z,24.07
2017-04-24T12:45:38.292Z,23.78
2017-04-24T12:46:48.527Z,23.78
2017-04-24T12:47:58.775Z,24.16
2017-04-24T12:49:08.074Z,23.97
2017-04-24T12:50:17.375Z,23.68
2017-04-24T12:51:27.301Z,23.58
2017-04-24T12:52:37.251Z,23.87
2017-04-24T12:53:46.869Z,23.87
2017-04-24T12:54:57.116Z,23.97
2017-04-24T12:56:07.365Z,23.78
2017-04-24T12:57:16.995Z,23.87
2017-04-24T12:58:27.234Z,23.78
2017-04-24T12:59:36.856Z,23.39
2017-04-24T13:00:47.092Z,23.78
2017-04-24T13:01:57.325Z,23.87
2017-04-24T13:03:07.571Z,23.78
2017-04-24T13:04:17.181Z,23.68
2017-04-24T13:05:26.791Z,23.49
2017-04-24T13:06:36.092Z,23.68
2017-04-24T13:07:46.029Z,23.78
2017-04-24T13:08:55.959Z,23.87
2017-04-24T13:10:05.578Z,23.87
2017-04-24T13:11:15.189Z,24.07
2017-04-24T13:12:25.110Z,23.68
2017-04-24T13:13:35.353Z,23.78
2017-04-24T13:14:45.584Z,24.16
2017-04-24T13:15:55.514Z,24.07
2017-04-24T13:17:05.438Z,23.97
2017-04-24T13:18:15.361Z,24.07
2017-04-24T13:19:25.598Z,24.07
2017-04-24T13:20:34.898Z,24.07
2017-04-24T13:21:44.815Z,24.65
2017-04-24T13:22:55.085Z,24.65
2017-04-24T13:24:04.382Z,24.65
2017-04-24T13:25:14.311Z,24.55
2017-04-24T13:26:24.239Z,24.65
2017-04-24T13:27:33.853Z,24.55
2017-04-24T13:28:44.097Z,24.55
2017-04-24T13:29:54.032Z,24.84
2017-04-24T13:31:03.013Z,24.65
2017-04-24T13:32:13.245Z,24.84
2017-04-24T13:33:23.506Z,24.74
2017-04-24T13:34:33.121Z,24.26
2017-04-24T13:35:43.365Z,24.84
2017-04-24T13:36:53.611Z,24.74
2017-04-24T13:38:03.540Z,24.74
2017-04-24T13:39:13.783Z,24.65
2017-04-24T13:40:23.396Z,24.74
2017-04-24T13:41:33.007Z,24.65
2017-04-24T13:42:43.250Z,24.65
2017-04-24T13:43:53.492Z,24.93
2017-04-24T13:45:03.730Z,24.93
2017-04-24T13:46:13.972Z,25.12
2017-04-24T13:47:24.205Z,25.22
2017-04-24T13:48:33.820Z,25.12
2017-04-24T13:49:43.437Z,25.03
2017-04-24T13:50:52.103Z,24.93
2017-04-24T13:52:02.041Z,25.32
2017-04-24T13:53:12.001Z,25.22
2017-04-24T13:54:21.925Z,25.12
2017-04-24T13:55:31.854Z,25.22
2017-04-24T13:56:41.783Z,25.22
2017-04-24T13:57:52.034Z,25.22
2017-04-24T13:59:02.282Z,25.22
2017-04-24T14:00:11.269Z,25.32
2017-04-24T14:01:20.565Z,25.32
2017-04-24T14:02:29.966Z,25.12
2017-04-24T14:03:39.917Z,25.7
2017-04-24T14:04:49.532Z,25.6
2017-04-24T14:05:59.784Z,25.32
2017-04-24T14:07:09.709Z,25.51
2017-04-24T14:08:19.942Z,25.7
2017-04-24T14:09:29.569Z,25.6
2017-04-24T14:10:39.807Z,25.6
2017-04-24T14:11:48.794Z,25.12
2017-04-24T14:12:57.794Z,25.6
2017-04-24T14:14:06.781Z,25.51
2017-04-24T14:15:17.024Z,25.51
2017-04-24T14:16:27.260Z,25.7
2017-04-24T14:17:37.509Z,25.12
2017-04-24T14:18:47.753Z,25.32
2017-04-24T14:19:57.683Z,25.42
2017-04-24T14:21:07.295Z,25.32
2017-04-24T14:22:16.914Z,25.42
2017-04-24T14:23:25.914Z,25.6
2017-04-24T14:24:34.583Z,25.22
2017-04-24T14:25:43.886Z,25.7
2017-04-24T14:26:54.123Z,25.6
2017-04-24T14:28:04.360Z,25.32
2017-04-24T14:29:14.602Z,25.51
2017-04-24T14:30:24.864Z,25.71
2017-04-24T14:31:34.475Z,25.6
2017-04-24T14:32:44.410Z,25.6
2017-04-24T14:33:54.665Z,25.51
2017-04-24T14:35:04.590Z,25.71
2017-04-24T14:36:14.831Z,25.62
2017-04-24T14:37:24.755Z,25.6
2017-04-24T14:38:34.687Z,25.7
2017-04-24T14:39:44.617Z,25.32
2017-04-24T14:40:54.858Z,25.8
2017-04-24T14:42:05.101Z,25.51
2017-04-24T14:43:15.034Z,25.13
2017-04-24T14:44:24.969Z,25.43
2017-04-24T14:45:34.894Z,25.51
2017-04-24T14:46:44.815Z,25.6
2017-04-24T14:47:55.053Z,25.51
2017-04-24T14:49:05.295Z,25.51
2017-04-24T14:50:15.535Z,25.7
2017-04-24T14:51:24.831Z,25.71
2017-04-24T14:52:34.454Z,25.33
2017-04-24T14:53:44.377Z,25.43
2017-04-24T14:54:54.623Z,25.51
2017-04-24T14:56:04.562Z,25.62
2017-04-24T14:57:14.796Z,25.22
2017-04-24T14:58:25.045Z,25.33
2017-04-24T14:59:35.287Z,25.23
2017-04-24T15:00:45.220Z,25.7
2017-04-24T15:01:54.833Z,25.33
2017-04-24T15:03:04.764Z,25.33
2017-04-24T15:04:15.012Z,25.33